Decoded Metar for LYTV (TIVAT in SERBIA) (IATA:TIV) | Meteo·Mobile Aviation Weather
aviador You're here:

LYTV Decoded Metar

TIVAT in SERBIA
Report Time2019-06-26 21:30:00
UTC Time2019-06-26 21:55:10
Flight Rules vfr VFR
Wind040° at 03 Gusting to 15 kt
W.Decomp.*RWY 32: 0.6 kt HW 2.9 kt RCW
Visibility9999 m
Phenomena:N/A
Clouds:N/A
Expected CloudBase > 7,600 ft AGL from Temp-Dew spread
CeilingNone
Temp31°C (ISA +16)
Dew Point12°C (31% RH)
Heat Index29.8°C
AAT30.5°C
QNH1017 hPa
Density Alt1,906 ft
Elevation16 ft
Report Wrong Elevation
Raw Report
LYTV 262130Z 04003G15KT CAVOK 31/12 Q1017=

Extra information for LYTV:More info

Metar Taf Metar & Taf Last 4 Metars F.Rules Stats Wind Profile Meteogram Temp Stats Airport Information Weather charts Add Link Nearby VenuesMetar ALERT Operation Metar Decoded Social comments